Carnival Pride — H3VU — position and weather

sailwx.info

Track history (hours):
 
Tides and Currents Weather Stations Pressure Air Temp Water Temp Dewpoint Dewpoint Depression Visibility Wind Speed Wind Dir Waves Ship Positions

Carnival Pride

Operator: Carnival Cruise Lines

Last reported at 2016-May-06 10:33 UTC. Time now 2016-May-06 11:05 UTC.
Position N 26°31' W 078°47'.

Type: Ship. MMSI: 354215000.

Date/timePositionNaut miles runAvg speedWind from/ knotsBaromVisibWave heightAir tempDewpointWater temp
2016-May-06 10:33N 26°31' W 078°47'9 9.4
2016-May-06 09:32N 26°22' W 078°43'44 1.8
2016-May-05 09:00N 26°00' W 078°00'338 8.1 300 / 301005.0 2.2 3.526.018.226.0
2016-May-03 15:00N 31°18' W 080°12'2711.3 1012.010.8 2.024.022.526.0
2016-May-03 12:33N 31°42' W 079°56'10611.1
2016-May-03 03:00N 32°48' W 078°18'9114.1 220 / 201016.010.8 1.024.017.725.0
2016-May-02 20:32N 33°50' W 076°57'2115.1
2016-May-02 19:08N 34°03' W 076°38'6415.5
2016-May-02 15:00N 34°42' W 075°36'12715.0 230 / 201019.010.8 1.5
2016-May-02 06:32N 36°48' W 075°46'1515.1
2016-May-02 05:33N 36°58' W 075°60'5916.9
2016-May-02 02:04N 37°57' W 076°10'1119.4
2016-May-02 01:29N 38°08' W 076°14'3819.4
2016-May-01 23:32N 38°44' W 076°26'1818.8
2016-May-01 22:33N 39°02' W 076°23'1211.9
2016-May-01 21:31N 39°13' W 076°32'5 3.9
2016-May-01 20:21N 39°16' W 076°36'0 0.0
2016-May-01 17:33N 39°16' W 076°36'0 0.0
2016-May-01 16:32N 39°16' W 076°36'0 0.0
2016-May-01 15:22N 39°16' W 076°36'0 0.0
2016-May-01 14:30N 39°16' W 076°36'0 0.0
2016-May-01 13:24N 39°16' W 076°36'0 0.0
2016-May-01 12:28N 39°16' W 076°36'0 0.0
2016-May-01 11:33N 39°16' W 076°36'0 0.1
2016-May-01 10:34N 39°16' W 076°36'10 9.5
2016-May-01 09:33N 39°10' W 076°26'1414.3
2016-May-01 08:33N 38°56' W 076°24'1919.0
2016-May-01 07:32N 38°37' W 076°26'1818.3
2016-May-01 06:33N 38°20' W 076°19'1716.9
2016-May-01 05:33N 38°03' W 076°13'1818.2
2016-May-01 04:32N 37°45' W 076°11'3616.4
2016-May-01 02:20N 37°09' W 076°09'1215.9
2016-May-01 01:34N 36°59' W 075°60'9 8.7
2016-May-01 00:33N 36°53' W 075°52'10 9.9
2016-Apr-30 23:32N 36°46' W 075°43'10011.0
2016-Apr-30 14:27N 35°09' W 075°13'1212.6
2016-Apr-30 13:32N 34°59' W 075°20'2712.3
2016-Apr-30 11:21N 34°35' W 075°36'1011.9
2016-Apr-30 10:32N 34°26' W 075°41'1212.0
2016-Apr-30 09:33N 34°16' W 075°47'4171.5
2016-Apr-30 09:00N 34°06' W 075°00'45103.7 020 / 151014.010.8 0.5
2016-Apr-30 08:34N 34°05' W 075°54'1412.5
2016-Apr-30 07:24N 33°52' W 076°02'1112.7
2016-Apr-30 06:32N 33°43' W 076°08'34916.2
2016-Apr-29 09:00N 27°54' W 076°30'270 5.6 150 / 71015.010.8 22.017.225.0
2016-Apr-27 09:00N 23°36' W 075°00'23219.3 1012.010.8 2.023.018.325.0
2016-Apr-26 21:00N 21°48' W 071°18'   070 / 201011.010.8 2.023.018.322.0
Track history (hours):
 
Tides and Currents Weather Stations Pressure Air Temp Water Temp Dewpoint Dewpoint Depression Visibility Wind Speed Wind Dir Waves Ship Positions

Carnival Pride

Operator: Carnival Cruise Lines

Last reported at 2016-May-06 10:33 UTC. Time now 2016-May-06 11:05 UTC.
Position N 26°31' W 078°47'.

Type: Ship. MMSI: 354215000.

Date/timePositionNaut miles runAvg speedWind from/ knotsBaromVisibWave heightAir tempDewpointWater temp
2016-May-06 10:33N 26°31' W 078°47'9 9.4
2016-May-06 09:32N 26°22' W 078°43'44 1.8
2016-May-05 09:00N 26°00' W 078°00'338 8.1 300 / 301005.0 2.2 3.526.018.226.0
2016-May-03 15:00N 31°18' W 080°12'2711.3 1012.010.8 2.024.022.526.0
2016-May-03 12:33N 31°42' W 079°56'10611.1
2016-May-03 03:00N 32°48' W 078°18'9114.1 220 / 201016.010.8 1.024.017.725.0
2016-May-02 20:32N 33°50' W 076°57'2115.1
2016-May-02 19:08N 34°03' W 076°38'6415.5
2016-May-02 15:00N 34°42' W 075°36'12715.0 230 / 201019.010.8 1.5
2016-May-02 06:32N 36°48' W 075°46'1515.1
2016-May-02 05:33N 36°58' W 075°60'5916.9
2016-May-02 02:04N 37°57' W 076°10'1119.4
2016-May-02 01:29N 38°08' W 076°14'3819.4
2016-May-01 23:32N 38°44' W 076°26'1818.8
2016-May-01 22:33N 39°02' W 076°23'1211.9
2016-May-01 21:31N 39°13' W 076°32'5 3.9
2016-May-01 20:21N 39°16' W 076°36'0 0.0
2016-May-01 17:33N 39°16' W 076°36'0 0.0
2016-May-01 16:32N 39°16' W 076°36'0 0.0
2016-May-01 15:22N 39°16' W 076°36'0 0.0
2016-May-01 14:30N 39°16' W 076°36'0 0.0
2016-May-01 13:24N 39°16' W 076°36'0 0.0
2016-May-01 12:28N 39°16' W 076°36'0 0.0
2016-May-01 11:33N 39°16' W 076°36'0 0.1
2016-May-01 10:34N 39°16' W 076°36'10 9.5
2016-May-01 09:33N 39°10' W 076°26'1414.3
2016-May-01 08:33N 38°56' W 076°24'1919.0
2016-May-01 07:32N 38°37' W 076°26'1818.3
2016-May-01 06:33N 38°20' W 076°19'1716.9
2016-May-01 05:33N 38°03' W 076°13'1818.2
2016-May-01 04:32N 37°45' W 076°11'3616.4
2016-May-01 02:20N 37°09' W 076°09'1215.9
2016-May-01 01:34N 36°59' W 075°60'9 8.7
2016-May-01 00:33N 36°53' W 075°52'10 9.9
2016-Apr-30 23:32N 36°46' W 075°43'10011.0
2016-Apr-30 14:27N 35°09' W 075°13'1212.6
2016-Apr-30 13:32N 34°59' W 075°20'2712.3
2016-Apr-30 11:21N 34°35' W 075°36'1011.9
2016-Apr-30 10:32N 34°26' W 075°41'1212.0
2016-Apr-30 09:33N 34°16' W 075°47'4171.5
2016-Apr-30 09:00N 34°06' W 075°00'45103.7 020 / 151014.010.8 0.5
2016-Apr-30 08:34N 34°05' W 075°54'1412.5
2016-Apr-30 07:24N 33°52' W 076°02'1112.7
2016-Apr-30 06:32N 33°43' W 076°08'34916.2
2016-Apr-29 09:00N 27°54' W 076°30'270 5.6 150 / 71015.010.8 22.017.225.0
2016-Apr-27 09:00N 23°36' W 075°00'23219.3 1012.010.8 2.023.018.325.0
2016-Apr-26 21:00N 21°48' W 071°18'   070 / 201011.010.8 2.023.018.322.0

Dump ship's entire track history